createdAt,value
2023-04-08T00:01:23.882Z,6.50
2023-04-08T00:02:46.071Z,6.39
2023-04-08T00:04:08.285Z,6.15
2023-04-08T00:05:30.197Z,6.74
2023-04-08T00:06:52.692Z,6.21
2023-04-08T00:08:14.921Z,5.16
2023-04-08T00:09:37.066Z,6.21
2023-04-08T00:10:59.221Z,6.33
2023-04-08T00:12:22.629Z,6.91
2023-04-08T00:13:43.950Z,6.50
2023-04-08T00:15:06.142Z,6.19
2023-04-08T00:16:28.417Z,4.85
2023-04-08T00:17:50.988Z,6.18
2023-04-08T00:19:13.164Z,5.88
2023-04-08T00:20:35.594Z,6.49
2023-04-08T00:21:57.165Z,5.95
2023-04-08T00:23:19.573Z,6.17
2023-04-08T00:24:42.399Z,6.53
2023-04-08T00:26:04.501Z,6.47
2023-04-08T00:27:27.520Z,6.49
2023-04-08T00:28:49.947Z,5.94
2023-04-08T00:30:13.828Z,6.16
2023-04-08T00:31:35.971Z,5.96
2023-04-08T00:32:58.017Z,4.92
2023-04-08T00:34:20.442Z,5.92
2023-04-08T00:35:42.867Z,6.38
2023-04-08T00:37:05.626Z,5.97
2023-04-08T00:38:27.312Z,6.23
2023-04-08T00:39:49.811Z,6.01
2023-04-08T00:41:13.265Z,5.74
2023-04-08T00:42:35.206Z,6.08
2023-04-08T00:43:56.685Z,6.82
2023-04-08T00:45:19.234Z,6.56
2023-04-08T00:46:41.315Z,5.69
2023-04-08T00:48:06.527Z,6.18
2023-04-08T00:49:28.274Z,6.01
2023-04-08T00:50:50.334Z,6.13
2023-04-08T00:52:11.713Z,6.07
2023-04-08T00:53:33.554Z,6.24
2023-04-08T00:54:57.331Z,6.51
2023-04-08T00:56:19.630Z,5.74
2023-04-08T00:57:41.108Z,4.58
2023-04-08T00:59:02.236Z,5.92
2023-04-08T01:00:24.159Z,6.46
2023-04-08T01:01:53.118Z,8.81
2023-04-08T01:03:18.847Z,7.38
2023-04-08T01:04:58.992Z,6.67
2023-04-08T01:08:12.667Z,6.03
2023-04-08T01:09:36.190Z,5.59
2023-04-08T01:11:00.273Z,5.68
2023-04-08T01:12:29.788Z,5.67
2023-04-08T01:13:52.937Z,6.13
2023-04-08T01:15:15.494Z,5.84
2023-04-08T01:16:39.284Z,5.51
2023-04-08T01:18:00.886Z,5.39
2023-04-08T01:19:26.226Z,6.07
2023-04-08T01:20:48.075Z,5.84
2023-04-08T01:22:13.662Z,5.96
2023-04-08T01:24:01.701Z,5.76
2023-04-08T01:25:26.686Z,5.62
2023-04-08T01:26:49.934Z,5.63
2023-04-08T01:28:15.172Z,6.01
2023-04-08T01:29:37.805Z,5.48
2023-04-08T01:30:59.565Z,5.97
2023-04-08T01:32:21.238Z,5.77
2023-04-08T01:33:44.746Z,6.11
2023-04-08T01:35:08.568Z,5.82
2023-04-08T01:36:30.644Z,5.48
2023-04-08T01:37:52.869Z,4.43
2023-04-08T01:39:15.641Z,5.38
2023-04-08T01:40:38.147Z,5.74
2023-04-08T01:42:00.321Z,4.88
2023-04-08T01:43:22.226Z,5.69
2023-04-08T01:44:43.804Z,5.72
2023-04-08T01:46:06.578Z,5.72
2023-04-08T01:47:29.074Z,5.58
2023-04-08T01:48:50.970Z,5.89
2023-04-08T01:50:13.908Z,5.32
2023-04-08T01:51:38.745Z,4.29
2023-04-08T01:54:13.365Z,5.78
2023-04-08T01:55:36.625Z,5.99
2023-04-08T01:56:57.733Z,5.79
2023-04-08T01:58:20.557Z,5.35
2023-04-08T01:59:42.447Z,5.63
2023-04-08T02:02:27.529Z,6.10
2023-04-08T02:03:49.153Z,5.77
2023-04-08T02:05:10.537Z,5.35
2023-04-08T02:06:32.393Z,5.69
2023-04-08T02:07:54.944Z,5.64
2023-04-08T02:09:17.564Z,5.39
2023-04-08T02:10:39.696Z,5.69
2023-04-08T02:12:02.261Z,4.33
2023-04-08T02:13:23.790Z,5.73
2023-04-08T02:14:44.813Z,5.98
2023-04-08T02:17:43.576Z,6.02
2023-04-08T02:19:12.567Z,6.36
2023-04-08T02:20:39.634Z,5.99
2023-04-08T02:22:09.420Z,6.55
2023-04-08T02:23:33.949Z,6.84
2023-04-08T02:24:58.536Z,6.07
2023-04-08T02:26:20.246Z,5.90
2023-04-08T02:27:45.553Z,5.97
2023-04-08T02:29:08.284Z,6.07
2023-04-08T02:30:31.409Z,6.04
2023-04-08T02:31:53.964Z,5.83
2023-04-08T02:34:40.620Z,5.44
2023-04-08T02:36:01.911Z,5.52
2023-04-08T02:37:24.188Z,5.61
2023-04-08T02:38:49.713Z,5.44
2023-04-08T02:40:31.727Z,5.51
2023-04-08T02:41:53.017Z,5.51
2023-04-08T02:43:16.687Z,5.61
2023-04-08T02:44:39.301Z,5.79
2023-04-08T02:46:06.544Z,5.77
2023-04-08T02:47:28.908Z,6.38
2023-04-08T02:48:52.950Z,5.31
2023-04-08T02:50:16.218Z,6.03
2023-04-08T02:51:39.802Z,5.92
2023-04-08T02:53:05.125Z,5.70
2023-04-08T02:54:28.024Z,5.46
2023-04-08T02:55:49.936Z,5.63
2023-04-08T02:57:13.584Z,5.21
2023-04-08T02:58:36.939Z,5.46
2023-04-08T02:59:59.106Z,5.49
2023-04-08T03:01:21.349Z,5.13
2023-04-08T03:02:43.445Z,5.72
2023-04-08T03:04:15.394Z,5.33
2023-04-08T03:07:00.280Z,6.01
2023-04-08T03:08:22.046Z,5.61
2023-04-08T03:09:43.442Z,6.29
2023-04-08T03:11:07.231Z,5.64
2023-04-08T03:12:28.977Z,5.93
2023-04-08T03:13:51.651Z,6.02
2023-04-08T03:15:13.927Z,5.47
2023-04-08T03:16:36.231Z,4.68
2023-04-08T03:17:58.284Z,5.91
2023-04-08T03:19:21.134Z,5.44
2023-04-08T03:20:43.950Z,5.53
2023-04-08T03:22:06.278Z,5.93
2023-04-08T03:23:28.177Z,5.16
2023-04-08T03:24:50.485Z,5.35
2023-04-08T03:26:14.175Z,5.40
2023-04-08T03:27:36.764Z,5.36
2023-04-08T03:28:59.354Z,5.81
2023-04-08T03:30:21.449Z,6.47
2023-04-08T03:31:44.595Z,6.38
2023-04-08T03:33:07.531Z,6.67
2023-04-08T03:34:29.664Z,6.75
2023-04-08T03:35:51.662Z,6.66
2023-04-08T03:37:14.267Z,4.70
2023-04-08T03:38:36.420Z,5.88
2023-04-08T03:39:58.627Z,5.66
2023-04-08T03:41:22.282Z,5.69
2023-04-08T03:42:44.082Z,5.49
2023-04-08T03:44:06.634Z,5.47
2023-04-08T03:45:28.845Z,5.46
2023-04-08T03:46:50.973Z,4.98
2023-04-08T03:48:18.649Z,5.11
2023-04-08T03:49:40.647Z,5.31
2023-04-08T03:51:03.122Z,5.42
2023-04-08T03:52:24.826Z,5.59
2023-04-08T03:53:46.374Z,5.30
2023-04-08T03:55:09.632Z,5.21
2023-04-08T03:56:31.896Z,5.39
2023-04-08T03:57:54.238Z,5.41
2023-04-08T03:59:16.110Z,6.12
2023-04-08T04:00:37.805Z,6.19
2023-04-08T04:02:01.350Z,6.22
2023-04-08T04:03:24.088Z,5.90
2023-04-08T04:06:08.943Z,5.37
2023-04-08T04:07:32.312Z,5.91
2023-04-08T04:08:55.202Z,6.07
2023-04-08T04:10:18.328Z,5.60
2023-04-08T04:11:56.955Z,5.33
2023-04-08T04:13:18.921Z,5.35
2023-04-08T04:14:41.920Z,5.38
2023-04-08T04:16:04.109Z,4.79
2023-04-08T04:17:26.281Z,5.26
2023-04-08T04:18:52.681Z,5.20
2023-04-08T04:20:15.618Z,5.47
2023-04-08T04:21:38.009Z,4.38
2023-04-08T04:23:01.221Z,5.97
2023-04-08T04:24:24.610Z,5.68
2023-04-08T04:25:47.134Z,5.57
2023-04-08T04:27:10.174Z,5.76
2023-04-08T04:28:32.183Z,5.62
2023-04-08T04:29:54.220Z,5.28
2023-04-08T04:31:20.471Z,5.61
2023-04-08T04:32:42.881Z,5.01
2023-04-08T04:34:06.101Z,5.05
2023-04-08T04:36:49.693Z,4.43
2023-04-08T04:38:14.329Z,5.55
2023-04-08T04:39:36.222Z,5.79
2023-04-08T04:41:01.012Z,5.01
2023-04-08T04:42:42.240Z,5.34
2023-04-08T04:44:06.174Z,5.68
2023-04-08T04:45:30.742Z,5.44
2023-04-08T04:46:56.463Z,5.62
2023-04-08T04:48:20.620Z,6.44
2023-04-08T04:49:43.877Z,6.22
2023-04-08T04:51:16.367Z,6.09
2023-04-08T04:54:21.684Z,5.58
2023-04-08T04:55:45.002Z,5.68
2023-04-08T04:57:09.033Z,5.02
2023-04-08T04:58:30.556Z,5.44
2023-04-08T04:59:52.967Z,5.01
2023-04-08T05:01:16.738Z,5.64
2023-04-08T05:02:43.915Z,5.49
2023-04-08T05:04:08.866Z,5.26
2023-04-08T05:05:38.732Z,6.19
2023-04-08T05:07:02.263Z,5.96
2023-04-08T05:24:24.315Z,5.67
2023-04-08T05:25:48.074Z,7.01
2023-04-08T05:27:10.044Z,7.84
2023-04-08T05:28:32.759Z,9.43
2023-04-08T05:29:58.579Z,7.39
2023-04-08T05:31:20.749Z,8.46
2023-04-08T05:32:42.758Z,7.24
2023-04-08T05:34:04.937Z,7.03
2023-04-08T05:35:26.714Z,7.36
2023-04-08T05:36:52.257Z,7.63
2023-04-08T05:38:14.209Z,7.14
2023-04-08T05:39:37.827Z,6.59
2023-04-08T05:41:00.540Z,7.32
2023-04-08T05:42:22.772Z,7.76
2023-04-08T05:43:45.254Z,5.89
2023-04-08T05:45:07.420Z,7.14
2023-04-08T05:46:28.940Z,6.59
2023-04-08T05:47:50.993Z,6.23
2023-04-08T05:49:12.164Z,7.37
2023-04-08T05:50:35.174Z,7.63
2023-04-08T05:51:57.481Z,7.41
2023-04-08T05:53:21.518Z,6.98
2023-04-08T05:54:43.525Z,6.79
2023-04-08T05:56:07.909Z,6.13
2023-04-08T05:57:29.852Z,8.19
2023-04-08T05:58:52.522Z,7.48
2023-04-08T06:00:17.135Z,6.66
2023-04-08T06:01:40.610Z,7.84
2023-04-08T06:03:02.010Z,6.87
2023-04-08T06:04:24.002Z,7.04
2023-04-08T06:05:47.536Z,7.37
2023-04-08T06:07:15.565Z,6.83
2023-04-08T06:08:38.908Z,6.66
2023-04-08T06:10:01.267Z,7.09
2023-04-08T06:11:23.080Z,7.16
2023-04-08T06:12:45.004Z,7.20
2023-04-08T06:14:07.030Z,7.13
2023-04-08T06:15:28.689Z,6.32
2023-04-08T06:16:52.219Z,6.78
2023-04-08T06:18:16.610Z,6.97
2023-04-08T06:19:38.649Z,7.63
2023-04-08T06:21:01.186Z,6.87
2023-04-08T06:22:24.619Z,6.70
2023-04-08T06:23:47.042Z,7.16
2023-04-08T06:25:10.817Z,6.35
2023-04-08T06:26:33.369Z,6.99
2023-04-08T06:27:56.175Z,6.72
2023-04-08T06:29:18.051Z,7.24
2023-04-08T06:30:39.866Z,7.10
2023-04-08T06:32:03.822Z,7.91
2023-04-08T06:33:26.922Z,7.89
2023-04-08T06:34:49.449Z,7.96
2023-04-08T06:36:11.916Z,7.51
2023-04-08T06:37:33.757Z,8.17
2023-04-08T06:38:55.463Z,7.34
2023-04-08T06:40:18.771Z,7.88
2023-04-08T06:41:40.972Z,7.92
2023-04-08T06:43:02.867Z,7.53
2023-04-08T06:44:25.442Z,6.68
2023-04-08T06:45:47.661Z,7.40
2023-04-08T06:47:11.209Z,6.36
2023-04-08T06:48:32.657Z,7.79
2023-04-08T06:49:54.560Z,7.38
2023-04-08T06:51:16.327Z,6.30
2023-04-08T06:52:38.416Z,7.45
2023-04-08T06:54:00.614Z,6.05
2023-04-08T06:55:22.283Z,7.43
2023-04-08T06:56:45.673Z,8.87
2023-04-08T06:58:08.458Z,8.26
2023-04-08T06:59:29.935Z,8.13
2023-04-08T07:00:52.031Z,8.33
2023-04-08T07:02:14.510Z,8.11
2023-04-08T07:03:37.257Z,7.63
2023-04-08T07:05:00.770Z,10.54
2023-04-08T07:06:22.726Z,7.01
2023-04-08T07:07:43.879Z,6.99
2023-04-08T07:09:06.276Z,7.40
2023-04-08T07:10:30.538Z,6.94
2023-04-08T07:11:52.412Z,7.48
2023-04-08T07:13:14.824Z,7.40
2023-04-08T07:14:40.374Z,7.36
2023-04-08T07:16:05.656Z,8.08
2023-04-08T07:17:30.705Z,9.14
2023-04-08T07:18:53.728Z,7.46
2023-04-08T07:20:16.308Z,9.57
2023-04-08T07:21:41.437Z,7.42
2023-04-08T07:23:05.474Z,7.78
2023-04-08T07:24:29.792Z,8.10
2023-04-08T07:25:51.795Z,7.63
2023-04-08T07:27:13.782Z,6.31
2023-04-08T07:28:35.936Z,7.59
2023-04-08T07:31:20.648Z,6.12
2023-04-08T07:32:44.633Z,7.02
2023-04-08T07:34:06.231Z,8.40
2023-04-08T07:35:29.143Z,7.51
2023-04-08T07:38:12.924Z,7.15
2023-04-08T07:39:34.554Z,5.70
2023-04-08T07:40:56.548Z,6.38
2023-04-08T07:42:18.531Z,6.88
2023-04-08T07:43:48.613Z,7.25
2023-04-08T07:45:10.503Z,7.23
2023-04-08T07:47:50.558Z,5.76
2023-04-08T07:49:14.565Z,7.85
2023-04-08T07:51:08.767Z,7.28
2023-04-08T07:52:02.238Z,7.06
2023-04-08T07:53:25.399Z,6.88
2023-04-08T07:54:47.935Z,7.03
2023-04-08T07:56:14.523Z,6.66
2023-04-08T07:57:37.507Z,6.94
2023-04-08T08:00:22.962Z,7.04
2023-04-08T08:01:45.288Z,6.41
2023-04-08T08:03:08.186Z,5.38
2023-04-08T08:04:31.716Z,6.78
2023-04-08T08:05:54.365Z,6.58
2023-04-08T08:07:16.278Z,7.51
2023-04-08T08:08:39.768Z,7.08
2023-04-08T08:10:02.177Z,6.85
2023-04-08T08:11:24.060Z,12.88
2023-04-08T08:12:45.698Z,8.63
2023-04-08T08:14:07.682Z,10.03
2023-04-08T08:15:29.745Z,6.24
2023-04-08T08:16:52.106Z,7.38
2023-04-08T08:18:14.824Z,6.00
2023-04-08T08:19:36.896Z,6.52
2023-04-08T08:20:59.318Z,6.54
2023-04-08T08:22:21.238Z,6.60
2023-04-08T08:23:42.855Z,6.98
2023-04-08T08:25:04.873Z,6.90
2023-04-08T08:26:26.519Z,7.36
2023-04-08T08:27:49.129Z,7.01
2023-04-08T08:29:11.289Z,6.44
2023-04-08T08:30:38.138Z,6.39
2023-04-08T08:32:00.236Z,6.23
2023-04-08T08:33:24.361Z,6.37
2023-04-08T08:34:46.228Z,6.09
2023-04-08T08:36:08.935Z,5.63
2023-04-08T08:37:32.780Z,6.47
2023-04-08T08:38:54.512Z,7.00
2023-04-08T08:40:16.758Z,6.34
2023-04-08T08:41:39.887Z,6.69
2023-04-08T08:43:02.796Z,7.21
2023-04-08T08:44:25.009Z,7.37
2023-04-08T08:45:47.189Z,6.82
2023-04-08T08:47:12.277Z,8.36
2023-04-08T08:48:38.801Z,13.96
2023-04-08T08:50:11.770Z,29.41
2023-04-08T08:51:37.736Z,10.72
2023-04-08T08:53:01.488Z,7.07
2023-04-08T08:54:24.827Z,6.77
2023-04-08T08:57:21.408Z,7.81
2023-04-08T08:58:55.896Z,7.51
2023-04-08T09:00:19.184Z,8.06
2023-04-08T09:01:41.278Z,11.92
2023-04-08T09:03:24.511Z,7.59
2023-04-08T09:05:00.162Z,5.76
2023-04-08T09:06:22.811Z,6.63
2023-04-08T09:07:46.040Z,7.82
2023-04-08T09:09:08.793Z,6.47
2023-04-08T09:10:30.319Z,7.67
2023-04-08T09:11:52.591Z,7.15
2023-04-08T09:13:15.310Z,8.13
2023-04-08T09:14:39.397Z,8.79
2023-04-08T09:16:06.542Z,8.18
2023-04-08T09:18:49.206Z,9.15
2023-04-08T09:21:35.595Z,5.64
2023-04-08T09:22:59.098Z,5.50
2023-04-08T09:24:31.179Z,6.13
2023-04-08T09:25:52.851Z,5.46
2023-04-08T09:27:15.399Z,5.06
2023-04-08T09:28:37.317Z,4.01
2023-04-08T09:30:16.152Z,5.38
2023-04-08T09:31:39.750Z,4.93
2023-04-08T09:33:01.560Z,5.12
2023-04-08T09:34:23.992Z,5.28
2023-04-08T09:35:45.657Z,5.57
2023-04-08T09:38:30.837Z,5.93
2023-04-08T09:39:52.773Z,6.25
2023-04-08T09:41:17.276Z,5.33
2023-04-08T09:42:40.801Z,5.71
2023-04-08T09:47:38.839Z,4.56
2023-04-08T10:01:50.150Z,3.55
2023-04-08T10:04:44.085Z,3.72
2023-04-08T10:06:06.657Z,5.37
2023-04-08T10:07:28.502Z,5.69
2023-04-08T10:08:51.647Z,6.67
2023-04-08T10:10:13.713Z,6.08
2023-04-08T10:11:37.196Z,6.14
2023-04-08T10:12:59.326Z,6.24
2023-04-08T10:14:22.678Z,7.34
2023-04-08T10:15:46.357Z,5.63
2023-04-08T10:17:28.644Z,5.87
2023-04-08T10:18:54.855Z,6.78
2023-04-08T10:20:37.380Z,6.29
2023-04-08T10:21:59.492Z,6.22
2023-04-08T10:23:21.415Z,8.29
2023-04-08T10:26:15.942Z,6.84
2023-04-08T10:27:38.781Z,7.75
2023-04-08T10:29:36.755Z,6.83
2023-04-08T10:31:00.384Z,7.61
2023-04-08T10:32:29.842Z,6.11
2023-04-08T10:33:52.841Z,6.23
2023-04-08T10:35:15.916Z,7.17
2023-04-08T10:36:46.599Z,5.80
2023-04-08T10:38:08.338Z,6.41
2023-04-08T10:39:32.542Z,6.08
2023-04-08T10:40:57.311Z,5.92
2023-04-08T10:42:19.855Z,4.97
2023-04-08T10:43:41.459Z,7.03
2023-04-08T10:45:03.484Z,6.65
2023-04-08T10:46:31.738Z,7.43
2023-04-08T10:47:53.910Z,6.46
2023-04-08T10:49:17.698Z,5.93
2023-04-08T10:50:41.016Z,6.47
2023-04-08T10:52:09.625Z,6.58
2023-04-08T10:53:50.308Z,5.58
2023-04-08T10:55:13.188Z,5.86
2023-04-08T10:56:36.986Z,6.09
2023-04-08T10:58:14.531Z,5.82
2023-04-08T11:01:18.539Z,5.97
2023-04-08T11:04:31.665Z,5.66
2023-04-08T11:06:05.694Z,6.14
2023-04-08T11:07:27.827Z,5.67
2023-04-08T11:08:49.975Z,4.68
2023-04-08T11:10:17.822Z,4.21
2023-04-08T11:11:44.801Z,6.00
2023-04-08T11:13:07.578Z,6.09
2023-04-08T11:14:32.809Z,5.79
2023-04-08T11:15:58.469Z,5.53
2023-04-08T11:17:23.235Z,5.97
2023-04-08T11:18:45.064Z,5.88
2023-04-08T11:20:07.850Z,6.48
2023-04-08T11:21:31.310Z,6.08
2023-04-08T11:22:54.734Z,6.58
2023-04-08T11:24:18.535Z,5.39
2023-04-08T11:25:51.430Z,5.74
2023-04-08T11:27:14.502Z,5.35
2023-04-08T11:28:39.828Z,5.12
2023-04-08T11:30:08.415Z,5.67
2023-04-08T11:31:30.751Z,5.27
2023-04-08T11:32:53.097Z,5.34
2023-04-08T11:34:40.222Z,5.09
2023-04-08T11:36:02.921Z,5.92
2023-04-08T11:37:27.287Z,5.50
2023-04-08T11:38:49.609Z,5.48
2023-04-08T11:40:13.832Z,4.86
2023-04-08T11:41:36.888Z,5.59
2023-04-08T11:42:59.124Z,5.74
2023-04-08T11:44:32.071Z,7.04
2023-04-08T11:45:53.922Z,6.68
2023-04-08T11:47:17.825Z,6.46
2023-04-08T11:48:39.772Z,5.84
2023-04-08T11:50:02.287Z,5.71
2023-04-08T11:51:25.534Z,7.57
2023-04-08T11:52:51.327Z,7.82
2023-04-08T11:54:17.641Z,8.65
2023-04-08T11:55:54.945Z,7.29
2023-04-08T11:57:21.093Z,7.48
2023-04-08T11:58:43.382Z,7.74
2023-04-08T12:01:33.844Z,7.18
2023-04-08T12:03:13.802Z,8.22
2023-04-08T12:04:40.504Z,7.31
2023-04-08T12:06:02.574Z,6.42
2023-04-08T12:07:29.588Z,7.01
2023-04-08T12:08:55.164Z,7.16
2023-04-08T12:10:18.619Z,6.76
2023-04-08T12:11:42.941Z,6.86
2023-04-08T12:13:04.742Z,6.06
2023-04-08T12:14:29.370Z,8.31
2023-04-08T12:15:51.706Z,6.88
2023-04-08T12:17:16.564Z,9.11
2023-04-08T12:18:39.209Z,8.46
2023-04-08T12:20:03.049Z,7.48
2023-04-08T12:21:26.103Z,6.54
2023-04-08T12:22:47.775Z,5.68
2023-04-08T12:24:09.710Z,6.41
2023-04-08T12:25:32.516Z,6.18
2023-04-08T12:28:23.483Z,6.23
2023-04-08T12:29:44.923Z,5.98
2023-04-08T12:31:07.576Z,5.62
2023-04-08T12:32:29.994Z,6.14
2023-04-08T12:34:01.782Z,6.05
2023-04-08T12:35:24.063Z,6.11
2023-04-08T12:36:46.456Z,6.57
2023-04-08T12:38:08.299Z,6.91
2023-04-08T12:39:29.965Z,6.36
2023-04-08T12:40:54.948Z,7.09
2023-04-08T12:42:16.561Z,5.95
2023-04-08T12:43:39.899Z,6.02
2023-04-08T12:45:01.554Z,6.11
2023-04-08T12:46:25.161Z,5.75
2023-04-08T12:47:48.261Z,5.73
2023-04-08T12:49:10.141Z,6.74
2023-04-08T12:50:32.407Z,6.44
2023-04-08T12:51:58.883Z,6.41
2023-04-08T12:53:22.927Z,6.98
2023-04-08T12:54:54.147Z,6.46
2023-04-08T12:56:24.104Z,6.76
2023-04-08T12:57:47.547Z,6.59
2023-04-08T12:59:09.393Z,6.82
2023-04-08T13:00:35.093Z,6.76
2023-04-08T13:01:58.010Z,7.48
2023-04-08T13:03:24.016Z,7.33
2023-04-08T13:04:53.882Z,8.22
2023-04-08T13:08:09.272Z,6.21
2023-04-08T13:09:33.471Z,6.48
2023-04-08T13:11:00.384Z,6.83
2023-04-08T13:12:25.155Z,7.51
2023-04-08T13:26:42.868Z,6.11
2023-04-08T13:29:37.459Z,7.86
2023-04-08T13:31:00.653Z,8.67
2023-04-08T13:32:28.159Z,8.26
2023-04-08T13:33:54.534Z,7.80
2023-04-08T13:36:49.350Z,7.86
2023-04-08T13:38:19.702Z,6.99
2023-04-08T13:39:41.788Z,7.32
2023-04-08T13:41:07.403Z,8.29
2023-04-08T13:42:38.313Z,7.39
2023-04-08T13:44:09.496Z,7.64
2023-04-08T13:45:32.140Z,8.02
2023-04-08T13:46:53.958Z,7.24
2023-04-08T13:48:16.709Z,7.61
2023-04-08T13:49:39.916Z,7.09
2023-04-08T13:51:03.569Z,7.79
2023-04-08T13:52:28.376Z,8.19
2023-04-08T13:53:52.070Z,7.96
2023-04-08T13:55:17.242Z,7.59
2023-04-08T13:56:38.454Z,7.91
2023-04-08T13:58:14.100Z,8.40
2023-04-08T13:59:44.566Z,7.20
2023-04-08T14:01:07.618Z,7.23
2023-04-08T14:02:29.979Z,7.63
2023-04-08T14:05:15.393Z,8.29
2023-04-08T14:06:39.499Z,8.69
2023-04-08T14:08:03.008Z,9.11
2023-04-08T14:09:25.048Z,9.69
2023-04-08T14:10:50.308Z,8.81
2023-04-08T14:12:17.023Z,8.83
2023-04-08T14:13:46.578Z,8.64
2023-04-08T14:15:21.347Z,8.02
2023-04-08T14:16:44.013Z,8.66
2023-04-08T14:18:10.806Z,9.09
2023-04-08T14:19:40.127Z,9.01
2023-04-08T14:21:13.143Z,8.10
2023-04-08T14:22:41.183Z,9.00
2023-04-08T14:24:03.276Z,9.00
2023-04-08T14:25:26.546Z,7.86
2023-04-08T14:28:17.853Z,6.95
2023-04-08T14:29:42.914Z,7.61
2023-04-08T14:31:04.828Z,8.87
2023-04-08T14:32:27.198Z,8.06
2023-04-08T14:33:50.967Z,6.97
2023-04-08T14:35:17.057Z,7.67
2023-04-08T14:36:42.145Z,7.82
2023-04-08T14:38:04.410Z,8.00
2023-04-08T14:39:26.886Z,8.73
2023-04-08T14:40:53.606Z,8.20
2023-04-08T14:42:18.168Z,8.24
2023-04-08T14:43:48.516Z,9.77
2023-04-08T14:45:14.836Z,9.55
2023-04-08T14:46:37.962Z,8.37
2023-04-08T14:48:01.378Z,8.56
2023-04-08T14:49:24.732Z,8.11
2023-04-08T14:50:49.688Z,16.13
2023-04-08T14:52:13.332Z,8.49
2023-04-08T14:53:36.841Z,8.78
2023-04-08T14:55:00.921Z,9.79
2023-04-08T14:56:26.607Z,9.65
2023-04-08T14:58:06.601Z,9.28
2023-04-08T15:01:17.811Z,8.17
2023-04-08T15:02:40.101Z,8.40
2023-04-08T15:04:04.324Z,7.96
2023-04-08T15:05:26.618Z,7.86
2023-04-08T15:06:49.238Z,7.23
2023-04-08T15:08:11.594Z,7.32
2023-04-08T15:09:36.869Z,7.72
2023-04-08T15:11:02.586Z,7.38
2023-04-08T15:12:25.341Z,7.53
2023-04-08T15:14:01.061Z,7.15
2023-04-08T15:15:23.875Z,7.54
2023-04-08T15:16:46.583Z,7.63
2023-04-08T15:18:09.272Z,7.04
2023-04-08T15:19:32.980Z,7.72
2023-04-08T15:20:56.325Z,7.48
2023-04-08T15:22:21.435Z,8.18
2023-04-08T15:23:44.561Z,7.36
2023-04-08T15:25:07.829Z,8.12
2023-04-08T15:26:39.047Z,7.58
2023-04-08T15:28:01.575Z,8.44
2023-04-08T15:29:23.422Z,8.71
2023-04-08T15:30:45.194Z,7.71
2023-04-08T15:32:10.851Z,7.88
2023-04-08T15:33:35.246Z,7.52
2023-04-08T15:34:58.569Z,8.20
2023-04-08T15:36:24.141Z,8.34
2023-04-08T15:37:59.465Z,8.13
2023-04-08T15:39:23.034Z,7.17
2023-04-08T15:40:47.966Z,8.22
2023-04-08T15:42:10.993Z,7.84
2023-04-08T15:43:33.805Z,7.89
2023-04-08T15:44:56.278Z,9.33
2023-04-08T15:46:19.540Z,9.79
2023-04-08T15:47:43.095Z,9.36
2023-04-08T15:49:07.769Z,8.29
2023-04-08T15:50:30.375Z,8.23
2023-04-08T15:53:54.330Z,8.62
2023-04-08T15:55:23.045Z,9.91
2023-04-08T15:56:47.975Z,11.61
2023-04-08T15:58:10.551Z,8.02
2023-04-08T15:59:33.894Z,5.83
2023-04-08T16:00:59.800Z,7.82
2023-04-08T16:02:21.637Z,7.67
2023-04-08T16:03:45.568Z,8.36
2023-04-08T16:05:09.018Z,8.29
2023-04-08T16:08:00.724Z,8.21
2023-04-08T16:09:23.391Z,8.66
2023-04-08T16:10:44.670Z,8.93
2023-04-08T16:12:24.822Z,9.34
2023-04-08T16:13:48.080Z,9.59
2023-04-08T16:15:11.204Z,9.46
2023-04-08T16:18:05.670Z,9.91
2023-04-08T16:19:30.110Z,9.71
2023-04-08T16:20:53.741Z,10.76
2023-04-08T16:22:15.509Z,10.39
2023-04-08T16:23:38.486Z,7.83
2023-04-08T16:25:01.409Z,10.41
2023-04-08T16:26:24.688Z,10.54
2023-04-08T16:29:30.387Z,9.57
2023-04-08T16:30:55.184Z,9.77
2023-04-08T16:32:16.730Z,11.22
2023-04-08T16:33:41.169Z,10.69
2023-04-08T16:35:02.930Z,10.93
2023-04-08T16:36:26.532Z,12.38
2023-04-08T16:37:48.641Z,11.52
2023-04-08T16:39:12.225Z,11.15
2023-04-08T16:40:34.778Z,15.67
2023-04-08T16:41:56.942Z,21.59
2023-04-08T16:43:18.103Z,11.74
2023-04-08T16:44:40.845Z,10.58
2023-04-08T17:04:21.246Z,10.78
2023-04-08T18:01:39.354Z,11.86
2023-04-08T18:17:29.680Z,15.68
2023-04-08T18:18:54.231Z,16.38
2023-04-08T18:20:18.776Z,17.05
2023-04-08T18:21:41.893Z,16.79
2023-04-08T18:23:04.354Z,20.20
2023-04-08T18:25:52.270Z,12.20
2023-04-08T18:27:18.435Z,17.19
